sensor_id;sensor_type;location;lat;lon;timestamp;P1;durP1;ratioP1;P2;durP2;ratioP2
69126;SDS011;56688;50.234;19.292;2023-05-10T00:00:21;8.30;;;4.80;;
69126;SDS011;56688;50.234;19.292;2023-05-10T00:02:50;8.30;;;4.40;;
69126;SDS011;56688;50.234;19.292;2023-05-10T00:05:17;8.40;;;4.30;;
69126;SDS011;56688;50.234;19.292;2023-05-10T00:07:45;9.90;;;4.20;;
69126;SDS011;56688;50.234;19.292;2023-05-10T00:10:11;7.90;;;4.80;;
69126;SDS011;56688;50.234;19.292;2023-05-10T00:12:39;6.00;;;4.50;;
69126;SDS011;56688;50.234;19.292;2023-05-10T00:15:06;8.60;;;5.30;;
69126;SDS011;56688;50.234;19.292;2023-05-10T00:17:34;8.60;;;4.60;;
69126;SDS011;56688;50.234;19.292;2023-05-10T00:20:01;10.90;;;5.10;;
69126;SDS011;56688;50.234;19.292;2023-05-10T00:22:28;9.20;;;5.00;;
69126;SDS011;56688;50.234;19.292;2023-05-10T00:24:55;7.70;;;5.00;;
69126;SDS011;56688;50.234;19.292;2023-05-10T00:27:22;8.00;;;4.70;;
69126;SDS011;56688;50.234;19.292;2023-05-10T00:29:48;7.20;;;4.70;;
69126;SDS011;56688;50.234;19.292;2023-05-10T00:32:15;6.60;;;4.30;;
69126;SDS011;56688;50.234;19.292;2023-05-10T00:34:43;8.70;;;4.80;;
69126;SDS011;56688;50.234;19.292;2023-05-10T00:37:11;7.40;;;4.60;;
69126;SDS011;56688;50.234;19.292;2023-05-10T00:39:37;8.60;;;4.70;;
69126;SDS011;56688;50.234;19.292;2023-05-10T00:42:04;9.90;;;4.60;;
69126;SDS011;56688;50.234;19.292;2023-05-10T00:44:31;8.50;;;5.10;;
69126;SDS011;56688;50.234;19.292;2023-05-10T00:46:59;9.70;;;4.80;;
69126;SDS011;56688;50.234;19.292;2023-05-10T00:49:26;7.80;;;5.20;;
69126;SDS011;56688;50.234;19.292;2023-05-10T00:51:53;6.90;;;4.90;;
69126;SDS011;56688;50.234;19.292;2023-05-10T00:54:20;8.10;;;5.40;;
69126;SDS011;56688;50.234;19.292;2023-05-10T00:56:47;9.30;;;4.90;;
69126;SDS011;56688;50.234;19.292;2023-05-10T00:59:16;8.50;;;4.60;;
69126;SDS011;56688;50.234;19.292;2023-05-10T01:01:44;6.40;;;4.60;;
69126;SDS011;56688;50.234;19.292;2023-05-10T01:04:12;9.70;;;5.40;;
69126;SDS011;56688;50.234;19.292;2023-05-10T01:06:41;7.70;;;5.00;;
69126;SDS011;56688;50.234;19.292;2023-05-10T01:09:08;8.90;;;5.20;;
69126;SDS011;56688;50.234;19.292;2023-05-10T01:11:37;7.70;;;5.30;;
69126;SDS011;56688;50.234;19.292;2023-05-10T01:14:06;10.50;;;5.40;;
69126;SDS011;56688;50.234;19.292;2023-05-10T01:16:35;8.10;;;5.10;;
69126;SDS011;56688;50.234;19.292;2023-05-10T01:19:06;9.00;;;5.50;;
69126;SDS011;56688;50.234;19.292;2023-05-10T01:21:48;8.50;;;5.10;;
69126;SDS011;56688;50.234;19.292;2023-05-10T01:24:31;22.40;;;8.30;;
69126;SDS011;56688;50.234;19.292;2023-05-10T01:27:13;25.70;;;9.70;;
69126;SDS011;56688;50.234;19.292;2023-05-10T01:35:37;10.50;;;5.30;;
69126;SDS011;56688;50.234;19.292;2023-05-10T01:43:30;9.50;;;5.50;;
69126;SDS011;56688;50.234;19.292;2023-05-10T01:46:09;18.50;;;9.20;;
69126;SDS011;56688;50.234;19.292;2023-05-10T01:48:47;13.70;;;6.70;;
69126;SDS011;56688;50.234;19.292;2023-05-10T01:51:19;7.40;;;5.10;;
69126;SDS011;56688;50.234;19.292;2023-05-10T01:53:50;9.70;;;4.80;;
69126;SDS011;56688;50.234;19.292;2023-05-10T01:56:21;10.80;;;5.10;;
69126;SDS011;56688;50.234;19.292;2023-05-10T01:58:52;10.10;;;5.40;;
69126;SDS011;56688;50.234;19.292;2023-05-10T02:01:21;12.00;;;5.90;;
69126;SDS011;56688;50.234;19.292;2023-05-10T02:03:50;9.60;;;5.50;;
69126;SDS011;56688;50.234;19.292;2023-05-10T02:06:18;12.90;;;5.60;;
69126;SDS011;56688;50.234;19.292;2023-05-10T02:08:48;11.50;;;5.60;;
69126;SDS011;56688;50.234;19.292;2023-05-10T02:11:17;9.70;;;5.20;;
69126;SDS011;56688;50.234;19.292;2023-05-10T02:13:48;10.10;;;5.50;;
69126;SDS011;56688;50.234;19.292;2023-05-10T02:16:17;9.60;;;5.40;;
69126;SDS011;56688;50.234;19.292;2023-05-10T02:18:47;10.70;;;5.00;;
69126;SDS011;56688;50.234;19.292;2023-05-10T02:21:15;22.90;;;8.70;;
69126;SDS011;56688;50.234;19.292;2023-05-10T02:23:43;16.40;;;6.50;;
69126;SDS011;56688;50.234;19.292;2023-05-10T02:26:12;11.70;;;6.10;;
69126;SDS011;56688;50.234;19.292;2023-05-10T02:28:41;12.10;;;5.80;;
69126;SDS011;56688;50.234;19.292;2023-05-10T02:31:09;11.00;;;5.70;;
69126;SDS011;56688;50.234;19.292;2023-05-10T02:33:38;17.40;;;6.40;;
69126;SDS011;56688;50.234;19.292;2023-05-10T02:36:07;10.50;;;5.10;;
69126;SDS011;56688;50.234;19.292;2023-05-10T02:38:35;11.30;;;5.40;;
69126;SDS011;56688;50.234;19.292;2023-05-10T02:41:03;6.90;;;4.60;;
69126;SDS011;56688;50.234;19.292;2023-05-10T02:43:32;10.10;;;5.00;;
69126;SDS011;56688;50.234;19.292;2023-05-10T02:46:00;7.80;;;4.70;;
69126;SDS011;56688;50.234;19.292;2023-05-10T02:48:27;7.50;;;4.80;;
69126;SDS011;56688;50.234;19.292;2023-05-10T02:50:55;10.00;;;4.40;;
69126;SDS011;56688;50.234;19.292;2023-05-10T02:53:30;9.20;;;4.60;;
69126;SDS011;56688;50.234;19.292;2023-05-10T02:55:59;7.90;;;4.60;;
69126;SDS011;56688;50.234;19.292;2023-05-10T02:58:30;9.50;;;4.90;;
69126;SDS011;56688;50.234;19.292;2023-05-10T03:00:57;11.80;;;5.50;;
69126;SDS011;56688;50.234;19.292;2023-05-10T03:03:24;7.70;;;4.90;;
69126;SDS011;56688;50.234;19.292;2023-05-10T03:05:53;9.20;;;5.00;;
69126;SDS011;56688;50.234;19.292;2023-05-10T03:08:22;15.80;;;6.90;;
69126;SDS011;56688;50.234;19.292;2023-05-10T03:10:54;13.80;;;5.50;;
69126;SDS011;56688;50.234;19.292;2023-05-10T03:13:32;11.00;;;5.70;;
69126;SDS011;56688;50.234;19.292;2023-05-10T03:16:08;10.50;;;5.30;;
69126;SDS011;56688;50.234;19.292;2023-05-10T03:18:44;9.20;;;5.60;;
69126;SDS011;56688;50.234;19.292;2023-05-10T03:21:17;9.80;;;5.00;;
69126;SDS011;56688;50.234;19.292;2023-05-10T03:23:46;10.40;;;4.80;;
69126;SDS011;56688;50.234;19.292;2023-05-10T03:26:18;9.70;;;5.30;;
69126;SDS011;56688;50.234;19.292;2023-05-10T03:28:51;9.90;;;5.30;;
69126;SDS011;56688;50.234;19.292;2023-05-10T03:31:19;12.30;;;5.70;;
69126;SDS011;56688;50.234;19.292;2023-05-10T03:33:47;10.90;;;5.10;;
69126;SDS011;56688;50.234;19.292;2023-05-10T03:36:17;12.40;;;5.00;;
69126;SDS011;56688;50.234;19.292;2023-05-10T03:38:45;14.40;;;6.30;;
69126;SDS011;56688;50.234;19.292;2023-05-10T03:41:13;18.20;;;7.30;;
69126;SDS011;56688;50.234;19.292;2023-05-10T03:43:40;18.10;;;5.90;;
69126;SDS011;56688;50.234;19.292;2023-05-10T03:46:07;16.40;;;6.50;;
69126;SDS011;56688;50.234;19.292;2023-05-10T03:48:34;11.30;;;6.30;;
69126;SDS011;56688;50.234;19.292;2023-05-10T03:51:01;15.80;;;6.60;;
69126;SDS011;56688;50.234;19.292;2023-05-10T03:53:29;13.50;;;6.30;;
69126;SDS011;56688;50.234;19.292;2023-05-10T03:55:55;18.70;;;6.70;;
69126;SDS011;56688;50.234;19.292;2023-05-10T03:58:23;20.40;;;8.20;;
69126;SDS011;56688;50.234;19.292;2023-05-10T04:00:50;23.80;;;8.80;;
69126;SDS011;56688;50.234;19.292;2023-05-10T04:03:19;21.10;;;8.50;;
69126;SDS011;56688;50.234;19.292;2023-05-10T04:05:46;15.80;;;8.90;;
69126;SDS011;56688;50.234;19.292;2023-05-10T04:08:13;17.30;;;9.30;;
69126;SDS011;56688;50.234;19.292;2023-05-10T04:10:42;25.10;;;11.20;;
69126;SDS011;56688;50.234;19.292;2023-05-10T04:13:10;27.40;;;11.50;;
69126;SDS011;56688;50.234;19.292;2023-05-10T04:15:37;31.10;;;11.50;;
69126;SDS011;56688;50.234;19.292;2023-05-10T04:18:04;25.40;;;11.20;;
69126;SDS011;56688;50.234;19.292;2023-05-10T04:20:34;24.60;;;10.90;;
69126;SDS011;56688;50.234;19.292;2023-05-10T04:23:00;41.50;;;16.20;;
69126;SDS011;56688;50.234;19.292;2023-05-10T04:25:27;35.80;;;14.60;;
69126;SDS011;56688;50.234;19.292;2023-05-10T04:27:54;61.30;;;32.20;;
69126;SDS011;56688;50.234;19.292;2023-05-10T04:30:21;38.40;;;24.40;;
69126;SDS011;56688;50.234;19.292;2023-05-10T04:32:48;33.80;;;20.80;;
69126;SDS011;56688;50.234;19.292;2023-05-10T04:35:15;229.50;;;60.80;;
69126;SDS011;56688;50.234;19.292;2023-05-10T04:37:41;73.30;;;21.80;;
69126;SDS011;56688;50.234;19.292;2023-05-10T04:40:09;90.80;;;27.80;;
69126;SDS011;56688;50.234;19.292;2023-05-10T04:42:37;46.10;;;14.90;;
69126;SDS011;56688;50.234;19.292;2023-05-10T04:45:07;24.50;;;11.10;;
69126;SDS011;56688;50.234;19.292;2023-05-10T04:47:36;15.10;;;7.60;;
69126;SDS011;56688;50.234;19.292;2023-05-10T04:50:06;14.60;;;7.90;;
69126;SDS011;56688;50.234;19.292;2023-05-10T04:52:33;14.50;;;7.50;;
69126;SDS011;56688;50.234;19.292;2023-05-10T04:55:00;13.50;;;7.10;;
69126;SDS011;56688;50.234;19.292;2023-05-10T04:57:27;14.80;;;7.00;;
69126;SDS011;56688;50.234;19.292;2023-05-10T04:59:54;11.80;;;5.50;;
69126;SDS011;56688;50.234;19.292;2023-05-10T05:02:20;12.70;;;5.80;;
69126;SDS011;56688;50.234;19.292;2023-05-10T05:04:48;12.20;;;6.40;;
69126;SDS011;56688;50.234;19.292;2023-05-10T05:07:15;16.70;;;7.90;;
69126;SDS011;56688;50.234;19.292;2023-05-10T05:09:42;23.40;;;10.70;;
69126;SDS011;56688;50.234;19.292;2023-05-10T05:12:09;41.10;;;17.80;;
69126;SDS011;56688;50.234;19.292;2023-05-10T05:14:41;16.10;;;7.70;;
69126;SDS011;56688;50.234;19.292;2023-05-10T05:17:07;23.40;;;10.00;;
69126;SDS011;56688;50.234;19.292;2023-05-10T05:19:34;12.50;;;6.50;;
69126;SDS011;56688;50.234;19.292;2023-05-10T05:22:02;9.90;;;5.50;;
69126;SDS011;56688;50.234;19.292;2023-05-10T05:24:29;7.90;;;4.80;;
69126;SDS011;56688;50.234;19.292;2023-05-10T05:26:56;8.10;;;5.20;;
69126;SDS011;56688;50.234;19.292;2023-05-10T05:29:22;9.60;;;5.30;;
69126;SDS011;56688;50.234;19.292;2023-05-10T05:31:49;9.20;;;5.40;;
69126;SDS011;56688;50.234;19.292;2023-05-10T05:34:18;8.00;;;5.10;;
69126;SDS011;56688;50.234;19.292;2023-05-10T05:36:47;9.10;;;5.10;;
69126;SDS011;56688;50.234;19.292;2023-05-10T05:39:14;11.00;;;4.80;;
69126;SDS011;56688;50.234;19.292;2023-05-10T05:41:41;6.50;;;4.20;;
69126;SDS011;56688;50.234;19.292;2023-05-10T05:44:08;5.90;;;4.10;;
69126;SDS011;56688;50.234;19.292;2023-05-10T05:46:36;10.30;;;4.60;;
69126;SDS011;56688;50.234;19.292;2023-05-10T05:49:03;9.60;;;5.00;;
69126;SDS011;56688;50.234;19.292;2023-05-10T05:51:30;8.70;;;4.50;;
69126;SDS011;56688;50.234;19.292;2023-05-10T05:53:57;8.10;;;3.90;;
69126;SDS011;56688;50.234;19.292;2023-05-10T05:56:24;10.20;;;3.70;;
69126;SDS011;56688;50.234;19.292;2023-05-10T05:58:51;7.60;;;4.20;;
69126;SDS011;56688;50.234;19.292;2023-05-10T06:01:18;7.00;;;3.90;;
69126;SDS011;56688;50.234;19.292;2023-05-10T06:03:45;7.20;;;3.60;;
69126;SDS011;56688;50.234;19.292;2023-05-10T06:06:12;8.30;;;3.90;;
69126;SDS011;56688;50.234;19.292;2023-05-10T06:08:39;4.10;;;3.10;;
69126;SDS011;56688;50.234;19.292;2023-05-10T06:11:06;4.00;;;3.00;;
69126;SDS011;56688;50.234;19.292;2023-05-10T06:13:33;4.90;;;2.60;;
69126;SDS011;56688;50.234;19.292;2023-05-10T06:16:02;4.10;;;2.80;;
69126;SDS011;56688;50.234;19.292;2023-05-10T06:18:29;4.40;;;2.50;;
69126;SDS011;56688;50.234;19.292;2023-05-10T06:20:56;4.30;;;3.10;;
69126;SDS011;56688;50.234;19.292;2023-05-10T06:23:23;5.20;;;2.80;;
69126;SDS011;56688;50.234;19.292;2023-05-10T06:25:54;3.60;;;2.80;;
69126;SDS011;56688;50.234;19.292;2023-05-10T06:28:20;5.40;;;3.30;;
69126;SDS011;56688;50.234;19.292;2023-05-10T06:30:47;4.50;;;3.10;;
69126;SDS011;56688;50.234;19.292;2023-05-10T06:33:14;6.00;;;2.70;;
69126;SDS011;56688;50.234;19.292;2023-05-10T06:35:42;6.30;;;2.30;;
69126;SDS011;56688;50.234;19.292;2023-05-10T06:38:09;3.50;;;2.40;;
69126;SDS011;56688;50.234;19.292;2023-05-10T06:40:36;4.20;;;2.60;;
69126;SDS011;56688;50.234;19.292;2023-05-10T06:43:03;13.00;;;5.90;;
69126;SDS011;56688;50.234;19.292;2023-05-10T06:45:29;5.20;;;2.90;;
69126;SDS011;56688;50.234;19.292;2023-05-10T06:47:56;5.00;;;2.70;;
69126;SDS011;56688;50.234;19.292;2023-05-10T06:50:24;4.30;;;2.50;;
69126;SDS011;56688;50.234;19.292;2023-05-10T06:52:51;4.00;;;2.50;;
69126;SDS011;56688;50.234;19.292;2023-05-10T06:55:19;4.30;;;2.40;;
69126;SDS011;56688;50.234;19.292;2023-05-10T06:57:46;3.00;;;2.00;;
69126;SDS011;56688;50.234;19.292;2023-05-10T07:00:14;2.60;;;2.30;;
69126;SDS011;56688;50.234;19.292;2023-05-10T07:02:41;2.80;;;1.80;;
69126;SDS011;56688;50.234;19.292;2023-05-10T07:05:09;2.80;;;1.90;;
69126;SDS011;56688;50.234;19.292;2023-05-10T07:07:35;6.10;;;2.10;;
69126;SDS011;56688;50.234;19.292;2023-05-10T07:10:02;3.90;;;1.80;;
69126;SDS011;56688;50.234;19.292;2023-05-10T07:12:30;3.40;;;2.00;;
69126;SDS011;56688;50.234;19.292;2023-05-10T07:14:56;4.00;;;2.00;;
69126;SDS011;56688;50.234;19.292;2023-05-10T07:17:23;88.70;;;10.30;;
69126;SDS011;56688;50.234;19.292;2023-05-10T07:19:51;2.10;;;1.90;;
69126;SDS011;56688;50.234;19.292;2023-05-10T07:22:18;5.00;;;2.00;;
69126;SDS011;56688;50.234;19.292;2023-05-10T07:24:45;6.70;;;2.60;;
69126;SDS011;56688;50.234;19.292;2023-05-10T07:27:12;4.90;;;2.40;;
69126;SDS011;56688;50.234;19.292;2023-05-10T07:29:39;2.20;;;1.90;;
69126;SDS011;56688;50.234;19.292;2023-05-10T07:32:06;3.70;;;2.90;;
69126;SDS011;56688;50.234;19.292;2023-05-10T07:34:33;2.80;;;2.00;;
69126;SDS011;56688;50.234;19.292;2023-05-10T07:37:00;2.10;;;1.90;;
69126;SDS011;56688;50.234;19.292;2023-05-10T07:39:27;3.00;;;2.20;;
69126;SDS011;56688;50.234;19.292;2023-05-10T07:41:54;3.90;;;1.90;;
69126;SDS011;56688;50.234;19.292;2023-05-10T07:44:21;6.40;;;3.00;;
69126;SDS011;56688;50.234;19.292;2023-05-10T07:46:49;3.40;;;1.80;;
69126;SDS011;56688;50.234;19.292;2023-05-10T07:49:16;2.20;;;1.60;;
69126;SDS011;56688;50.234;19.292;2023-05-10T07:51:43;3.90;;;1.60;;
69126;SDS011;56688;50.234;19.292;2023-05-10T07:54:10;6.10;;;1.90;;
69126;SDS011;56688;50.234;19.292;2023-05-10T07:56:37;3.50;;;2.10;;
69126;SDS011;56688;50.234;19.292;2023-05-10T07:59:04;2.60;;;1.60;;
69126;SDS011;56688;50.234;19.292;2023-05-10T08:01:34;2.50;;;1.80;;
69126;SDS011;56688;50.234;19.292;2023-05-10T08:04:01;2.70;;;1.80;;
69126;SDS011;56688;50.234;19.292;2023-05-10T08:06:31;4.30;;;1.90;;
69126;SDS011;56688;50.234;19.292;2023-05-10T08:08:58;3.20;;;1.80;;
69126;SDS011;56688;50.234;19.292;2023-05-10T08:11:25;2.30;;;1.60;;
69126;SDS011;56688;50.234;19.292;2023-05-10T08:13:54;2.50;;;1.80;;
69126;SDS011;56688;50.234;19.292;2023-05-10T08:16:21;1.80;;;1.30;;
69126;SDS011;56688;50.234;19.292;2023-05-10T08:18:48;1.70;;;1.60;;
69126;SDS011;56688;50.234;19.292;2023-05-10T08:21:17;2.40;;;1.40;;
69126;SDS011;56688;50.234;19.292;2023-05-10T08:23:44;1.80;;;1.40;;
69126;SDS011;56688;50.234;19.292;2023-05-10T08:26:11;2.90;;;2.00;;
69126;SDS011;56688;50.234;19.292;2023-05-10T08:28:38;2.90;;;1.70;;
69126;SDS011;56688;50.234;19.292;2023-05-10T08:31:05;1.90;;;1.60;;
69126;SDS011;56688;50.234;19.292;2023-05-10T08:33:32;2.60;;;1.60;;
69126;SDS011;56688;50.234;19.292;2023-05-10T08:35:59;2.30;;;1.60;;
69126;SDS011;56688;50.234;19.292;2023-05-10T08:38:26;2.40;;;1.60;;
69126;SDS011;56688;50.234;19.292;2023-05-10T08:40:53;2.30;;;1.70;;
69126;SDS011;56688;50.234;19.292;2023-05-10T08:43:26;2.90;;;1.40;;
69126;SDS011;56688;50.234;19.292;2023-05-10T08:45:55;4.50;;;1.60;;
69126;SDS011;56688;50.234;19.292;2023-05-10T08:48:26;2.40;;;1.50;;
69126;SDS011;56688;50.234;19.292;2023-05-10T08:50:56;1.70;;;1.30;;
69126;SDS011;56688;50.234;19.292;2023-05-10T08:53:25;5.00;;;1.70;;
69126;SDS011;56688;50.234;19.292;2023-05-10T08:55:53;2.60;;;1.50;;
69126;SDS011;56688;50.234;19.292;2023-05-10T08:58:21;2.70;;;1.40;;
69126;SDS011;56688;50.234;19.292;2023-05-10T09:00:48;1.80;;;1.20;;
69126;SDS011;56688;50.234;19.292;2023-05-10T09:03:18;3.60;;;1.40;;
69126;SDS011;56688;50.234;19.292;2023-05-10T09:05:45;2.00;;;1.30;;
69126;SDS011;56688;50.234;19.292;2023-05-10T09:08:12;4.80;;;1.40;;
69126;SDS011;56688;50.234;19.292;2023-05-10T09:10:40;1.70;;;1.20;;
69126;SDS011;56688;50.234;19.292;2023-05-10T09:13:10;2.20;;;1.40;;
69126;SDS011;56688;50.234;19.292;2023-05-10T09:15:38;2.00;;;1.80;;
69126;SDS011;56688;50.234;19.292;2023-05-10T09:18:05;2.70;;;1.80;;
69126;SDS011;56688;50.234;19.292;2023-05-10T09:20:32;4.20;;;1.60;;
69126;SDS011;56688;50.234;19.292;2023-05-10T09:22:59;3.70;;;1.80;;
69126;SDS011;56688;50.234;19.292;2023-05-10T09:25:26;4.80;;;1.70;;
69126;SDS011;56688;50.234;19.292;2023-05-10T09:27:53;3.00;;;2.20;;
69126;SDS011;56688;50.234;19.292;2023-05-10T09:30:25;3.00;;;1.70;;
69126;SDS011;56688;50.234;19.292;2023-05-10T09:32:54;5.40;;;2.90;;
69126;SDS011;56688;50.234;19.292;2023-05-10T09:35:23;3.70;;;2.10;;
69126;SDS011;56688;50.234;19.292;2023-05-10T09:37:55;3.30;;;2.00;;
69126;SDS011;56688;50.234;19.292;2023-05-10T09:40:25;3.80;;;1.60;;
69126;SDS011;56688;50.234;19.292;2023-05-10T09:42:55;3.00;;;1.40;;
69126;SDS011;56688;50.234;19.292;2023-05-10T09:45:24;3.40;;;1.80;;
69126;SDS011;56688;50.234;19.292;2023-05-10T09:47:52;2.40;;;1.90;;
69126;SDS011;56688;50.234;19.292;2023-05-10T09:50:20;3.30;;;1.80;;
69126;SDS011;56688;50.234;19.292;2023-05-10T09:55:15;4.50;;;2.00;;
69126;SDS011;56688;50.234;19.292;2023-05-10T09:57:44;3.70;;;1.80;;
69126;SDS011;56688;50.234;19.292;2023-05-10T10:00:15;3.50;;;1.90;;
69126;SDS011;56688;50.234;19.292;2023-05-10T10:02:53;4.90;;;2.00;;
69126;SDS011;56688;50.234;19.292;2023-05-10T10:05:27;3.20;;;1.80;;
69126;SDS011;56688;50.234;19.292;2023-05-10T10:07:56;2.60;;;1.70;;
69126;SDS011;56688;50.234;19.292;2023-05-10T10:10:24;3.10;;;1.90;;
69126;SDS011;56688;50.234;19.292;2023-05-10T10:12:52;2.80;;;1.60;;
69126;SDS011;56688;50.234;19.292;2023-05-10T10:15:20;2.70;;;1.80;;
69126;SDS011;56688;50.234;19.292;2023-05-10T10:17:49;3.30;;;1.70;;
69126;SDS011;56688;50.234;19.292;2023-05-10T10:20:17;3.90;;;2.10;;
69126;SDS011;56688;50.234;19.292;2023-05-10T10:22:46;2.60;;;1.80;;
69126;SDS011;56688;50.234;19.292;2023-05-10T10:25:14;2.40;;;1.90;;
69126;SDS011;56688;50.234;19.292;2023-05-10T10:36:11;3.60;;;1.70;;
69126;SDS011;56688;50.234;19.292;2023-05-10T10:52:30;4.30;;;1.90;;
69126;SDS011;56688;50.234;19.292;2023-05-10T10:55:07;3.10;;;1.70;;
69126;SDS011;56688;50.234;19.292;2023-05-10T11:05:46;1.70;;;1.50;;
69126;SDS011;56688;50.234;19.292;2023-05-10T11:13:30;1.90;;;1.60;;
69126;SDS011;56688;50.234;19.292;2023-05-10T11:21:28;3.20;;;1.70;;
69126;SDS011;56688;50.234;19.292;2023-05-10T11:23:57;1.80;;;1.50;;
69126;SDS011;56688;50.234;19.292;2023-05-10T11:26:30;3.80;;;1.50;;
69126;SDS011;56688;50.234;19.292;2023-05-10T11:28:59;3.10;;;1.60;;
69126;SDS011;56688;50.234;19.292;2023-05-10T11:31:28;4.70;;;2.10;;
69126;SDS011;56688;50.234;19.292;2023-05-10T11:33:56;4.00;;;2.00;;
69126;SDS011;56688;50.234;19.292;2023-05-10T11:36:25;3.40;;;1.70;;
69126;SDS011;56688;50.234;19.292;2023-05-10T11:38:54;5.40;;;3.30;;
69126;SDS011;56688;50.234;19.292;2023-05-10T11:41:22;2.60;;;1.80;;
69126;SDS011;56688;50.234;19.292;2023-05-10T11:43:51;1.80;;;1.60;;
69126;SDS011;56688;50.234;19.292;2023-05-10T11:46:20;2.50;;;2.00;;
69126;SDS011;56688;50.234;19.292;2023-05-10T11:48:49;2.40;;;1.60;;
69126;SDS011;56688;50.234;19.292;2023-05-10T11:51:21;1.80;;;1.70;;
69126;SDS011;56688;50.234;19.292;2023-05-10T11:53:49;5.60;;;2.00;;
69126;SDS011;56688;50.234;19.292;2023-05-10T11:56:19;3.00;;;1.80;;
69126;SDS011;56688;50.234;19.292;2023-05-10T11:58:52;2.00;;;1.80;;
69126;SDS011;56688;50.234;19.292;2023-05-10T12:01:22;3.10;;;1.60;;
69126;SDS011;56688;50.234;19.292;2023-05-10T12:03:51;1.60;;;1.50;;
69126;SDS011;56688;50.234;19.292;2023-05-10T12:06:20;2.90;;;1.50;;
69126;SDS011;56688;50.234;19.292;2023-05-10T12:08:48;3.00;;;1.80;;
69126;SDS011;56688;50.234;19.292;2023-05-10T12:11:20;2.90;;;1.40;;
69126;SDS011;56688;50.234;19.292;2023-05-10T12:13:52;3.30;;;1.60;;
69126;SDS011;56688;50.234;19.292;2023-05-10T12:18:50;3.00;;;1.80;;
69126;SDS011;56688;50.234;19.292;2023-05-10T12:21:20;3.30;;;2.00;;
69126;SDS011;56688;50.234;19.292;2023-05-10T12:23:51;3.80;;;1.90;;
69126;SDS011;56688;50.234;19.292;2023-05-10T12:26:23;1.50;;;1.40;;
69126;SDS011;56688;50.234;19.292;2023-05-10T12:28:52;3.60;;;1.80;;
69126;SDS011;56688;50.234;19.292;2023-05-10T12:31:19;1.60;;;1.50;;
69126;SDS011;56688;50.234;19.292;2023-05-10T12:33:47;2.60;;;1.90;;
69126;SDS011;56688;50.234;19.292;2023-05-10T12:36:16;2.50;;;1.70;;
69126;SDS011;56688;50.234;19.292;2023-05-10T12:38:44;2.00;;;1.60;;
69126;SDS011;56688;50.234;19.292;2023-05-10T12:41:15;2.00;;;1.50;;
69126;SDS011;56688;50.234;19.292;2023-05-10T12:43:43;2.40;;;1.50;;
69126;SDS011;56688;50.234;19.292;2023-05-10T12:46:12;2.90;;;1.40;;
69126;SDS011;56688;50.234;19.292;2023-05-10T12:48:41;2.80;;;1.60;;
69126;SDS011;56688;50.234;19.292;2023-05-10T12:51:09;1.30;;;1.20;;
69126;SDS011;56688;50.234;19.292;2023-05-10T12:53:38;2.50;;;1.30;;
69126;SDS011;56688;50.234;19.292;2023-05-10T12:56:08;2.70;;;1.80;;
69126;SDS011;56688;50.234;19.292;2023-05-10T12:58:35;2.00;;;1.40;;
69126;SDS011;56688;50.234;19.292;2023-05-10T13:01:02;1.70;;;1.40;;
69126;SDS011;56688;50.234;19.292;2023-05-10T13:03:30;3.00;;;1.60;;
69126;SDS011;56688;50.234;19.292;2023-05-10T13:05:57;3.50;;;1.50;;
69126;SDS011;56688;50.234;19.292;2023-05-10T13:08:24;1.80;;;1.40;;
69126;SDS011;56688;50.234;19.292;2023-05-10T13:10:51;3.20;;;1.60;;
69126;SDS011;56688;50.234;19.292;2023-05-10T13:13:18;2.60;;;1.70;;
69126;SDS011;56688;50.234;19.292;2023-05-10T13:15:46;6.70;;;5.10;;
69126;SDS011;56688;50.234;19.292;2023-05-10T13:18:12;3.40;;;2.50;;
69126;SDS011;56688;50.234;19.292;2023-05-10T13:20:40;2.60;;;1.80;;
69126;SDS011;56688;50.234;19.292;2023-05-10T13:23:07;3.00;;;1.60;;
69126;SDS011;56688;50.234;19.292;2023-05-10T13:25:34;2.90;;;1.50;;
69126;SDS011;56688;50.234;19.292;2023-05-10T13:28:01;1.90;;;1.50;;
69126;SDS011;56688;50.234;19.292;2023-05-10T13:30:28;3.20;;;1.90;;
69126;SDS011;56688;50.234;19.292;2023-05-10T13:32:56;1.50;;;1.40;;
69126;SDS011;56688;50.234;19.292;2023-05-10T13:35:23;2.70;;;1.60;;
69126;SDS011;56688;50.234;19.292;2023-05-10T13:37:50;2.70;;;1.60;;
69126;SDS011;56688;50.234;19.292;2023-05-10T13:40:17;2.20;;;1.60;;
69126;SDS011;56688;50.234;19.292;2023-05-10T13:42:44;2.10;;;1.60;;
69126;SDS011;56688;50.234;19.292;2023-05-10T13:45:12;1.80;;;1.60;;
69126;SDS011;56688;50.234;19.292;2023-05-10T13:47:39;2.80;;;1.60;;
69126;SDS011;56688;50.234;19.292;2023-05-10T13:50:06;3.30;;;1.90;;
69126;SDS011;56688;50.234;19.292;2023-05-10T13:52:34;2.60;;;1.50;;
69126;SDS011;56688;50.234;19.292;2023-05-10T13:55:01;2.00;;;1.60;;
69126;SDS011;56688;50.234;19.292;2023-05-10T13:57:29;2.30;;;1.60;;
69126;SDS011;56688;50.234;19.292;2023-05-10T13:59:56;1.50;;;1.40;;
69126;SDS011;56688;50.234;19.292;2023-05-10T14:02:24;2.70;;;1.50;;
69126;SDS011;56688;50.234;19.292;2023-05-10T14:04:51;7.10;;;1.60;;
69126;SDS011;56688;50.234;19.292;2023-05-10T14:07:18;2.70;;;1.70;;
69126;SDS011;56688;50.234;19.292;2023-05-10T14:09:45;2.70;;;1.50;;
69126;SDS011;56688;50.234;19.292;2023-05-10T14:12:12;8.80;;;2.30;;
69126;SDS011;56688;50.234;19.292;2023-05-10T14:14:41;7.40;;;1.90;;
69126;SDS011;56688;50.234;19.292;2023-05-10T14:17:08;2.40;;;1.60;;
69126;SDS011;56688;50.234;19.292;2023-05-10T14:19:37;2.40;;;1.70;;
69126;SDS011;56688;50.234;19.292;2023-05-10T14:22:05;4.20;;;1.50;;
69126;SDS011;56688;50.234;19.292;2023-05-10T14:24:32;2.50;;;1.70;;
69126;SDS011;56688;50.234;19.292;2023-05-10T14:26:59;4.50;;;1.80;;
69126;SDS011;56688;50.234;19.292;2023-05-10T14:29:26;2.70;;;1.90;;
69126;SDS011;56688;50.234;19.292;2023-05-10T14:31:53;2.90;;;1.80;;
69126;SDS011;56688;50.234;19.292;2023-05-10T14:34:20;5.30;;;2.50;;
69126;SDS011;56688;50.234;19.292;2023-05-10T14:36:47;3.30;;;2.30;;
69126;SDS011;56688;50.234;19.292;2023-05-10T14:39:14;2.60;;;1.80;;
69126;SDS011;56688;50.234;19.292;2023-05-10T14:41:42;1.70;;;1.60;;
69126;SDS011;56688;50.234;19.292;2023-05-10T14:44:11;2.00;;;1.70;;
69126;SDS011;56688;50.234;19.292;2023-05-10T14:46:37;4.00;;;1.80;;
69126;SDS011;56688;50.234;19.292;2023-05-10T14:51:49;3.00;;;1.90;;
69126;SDS011;56688;50.234;19.292;2023-05-10T14:54:16;2.10;;;1.80;;
69126;SDS011;56688;50.234;19.292;2023-05-10T14:56:43;2.10;;;1.70;;
69126;SDS011;56688;50.234;19.292;2023-05-10T14:59:10;3.00;;;1.80;;
69126;SDS011;56688;50.234;19.292;2023-05-10T15:01:38;3.00;;;1.90;;
69126;SDS011;56688;50.234;19.292;2023-05-10T15:04:08;2.10;;;1.90;;
69126;SDS011;56688;50.234;19.292;2023-05-10T15:06:35;4.30;;;1.80;;
69126;SDS011;56688;50.234;19.292;2023-05-10T15:09:03;2.10;;;1.90;;
69126;SDS011;56688;50.234;19.292;2023-05-10T15:11:30;4.30;;;2.00;;
69126;SDS011;56688;50.234;19.292;2023-05-10T15:13:57;2.30;;;2.00;;
69126;SDS011;56688;50.234;19.292;2023-05-10T15:16:24;1.90;;;1.70;;
69126;SDS011;56688;50.234;19.292;2023-05-10T15:18:51;5.80;;;2.10;;
69126;SDS011;56688;50.234;19.292;2023-05-10T15:21:18;4.50;;;1.90;;
69126;SDS011;56688;50.234;19.292;2023-05-10T15:23:45;5.80;;;2.40;;
69126;SDS011;56688;50.234;19.292;2023-05-10T15:26:12;4.80;;;2.70;;
69126;SDS011;56688;50.234;19.292;2023-05-10T15:28:39;4.30;;;2.10;;
69126;SDS011;56688;50.234;19.292;2023-05-10T15:31:06;5.10;;;2.60;;
69126;SDS011;56688;50.234;19.292;2023-05-10T15:33:33;3.30;;;1.80;;
69126;SDS011;56688;50.234;19.292;2023-05-10T15:36:00;7.70;;;2.70;;